Welcome   Guest   [Login | Register] Sign in with Facebook Sign in with Google Sign in with Yahoo!
logoRelationalStocks.com
STOCK TICKER:
Vanda Pharmaceuticals Inc. - Common Stock   (ticker: VNDA)
Institutions's Holdings On The Stock
INSTITUTION/GURU    (click Current Holdings for holding history) Current Holdings
(link to holding history)
Previous
Holdings
Change Portfolio
Date
Alaska Retirement Management Board 51,166 49,476 3% 2020-06-30
6 Meridian 11,136 27,217 59% 2020-06-30
Patriot Financial Group Insurance Agency, LLC 9 0 New Buy 2020-06-30
Municipal Employees' Retirement System of Michigan 0 49,380 Sold Out 2020-06-30
Palo Alto Investors, LLC 4,134,846 0 New Buy 2020-03-31
Renaissance Technologies(Jim Simons) 3,849,654 3,453,112 11% 2020-03-31
MACQUARIE GROUP LTD 3,200,963 3,097,822 3% 2020-03-31
STATE STREET CORP 2,835,916 2,534,020 12% 2020-03-31
DIMENSIONAL FUND ADVISORS INC 1,335,345 1,197,721 11% 2020-03-31
PRUDENTIAL FINANCIAL INC 1,275,911 1,265,697 1% 2020-03-31
ACADIAN ASSET MANAGEMENT LLC 1,166,768 985,517 18% 2020-03-31
Bank of New York Mellon CORP 600,559 612,894 2% 2020-03-31
Nuveen Asset Management, LLC 202,542 324,150 38% 2020-03-31
Winton Capital Group Ltd 563,523 552,640 2% 2020-03-31
DEUTSCHE BANK AG 462,345 19,685 2,249% 2020-03-31
PRINCIPAL FINANCIAL GROUP INC 412,975 429,168 4% 2020-03-31
Man Group plc 411,552 291,647 41% 2020-03-31
Candriam Luxembourg S.C.A. 266,000 266,000 No Change 2020-03-31
BANK OF MONTREAL /CAN/ 257,106 261,107 2% 2020-03-31
FEDERATED INVESTORS INC /PA/ 243,070 104,097 134% 2020-03-31
Susquehanna International Group, LLP 228,786 189,166 21% 2020-03-31
Russell Investments Group, Ltd. 72,651 90,755 20% 2020-03-31
BOGLE INVESTMENT MANAGEMENT L P /DE/ 213,440 231,733 8% 2020-03-31
LOS ANGELES CAPITAL MANAGEMENT & EQUITY RESEARCH INC 211,632 274,274 23% 2020-03-31
WELLS FARGO & CO/MN 196,489 339,841 42% 2020-03-31
RHUMBLINE ADVISERS 175,530 172,367 2% 2020-03-31
J P MORGAN CHASE & CO 172,192 189,348 9% 2020-03-31
PANAGORA ASSET MANAGEMENT INC 159,670 563,795 72% 2020-03-31
Gotham Asset Management, LLC 157,584 0 New Buy 2020-03-31
Skandinaviska Enskilda Banken AB (publ) 149,400 0 New Buy 2020-03-31
ClariVest Asset Management LLC 145,505 118,465 23% 2020-03-31
GLOBEFLEX CAPITAL L P 145,426 145,426 No Change 2020-03-31
LEGAL & GENERAL GROUP PLC 142,468 138,292 3% 2020-03-31
Public Sector Pension Investment Board 119,456 119,456 No Change 2020-03-31
CALIFORNIA PUBLIC EMPLOYEES RETIREMENT SYSTEM 115,676 190,176 39% 2020-03-31
SEI INVESTMENTS CO 110,598 206,055 46% 2020-03-31
INVESTOR RESOURCES GROUP LLC 105,234 0 New Buy 2020-03-31
AMERICAN CENTURY COMPANIES INC 98,262 77,126 27% 2020-03-31
Swiss National Bank 93,100 91,800 1% 2020-03-31
STATE OF WISCONSIN INVESTMENT BOARD 89,100 78,100 14% 2020-03-31
Squarepoint Ops LLC 81,070 117,229 31% 2020-03-31
Birchview Capital, LP 80,000 80,000 No Change 2020-03-31
CALIFORNIA STATE TEACHERS RETIREMENT SYSTEM 78,121 79,058 1% 2020-03-31
ALLIANCEBERNSTEIN L.P. 75,403 75,303 0% 2020-03-31
BARCLAYS PLC 73,349 89,791 18% 2020-03-31
Caption Management, LLC 72,000 54,000 33% 2020-03-31
GREAT WEST LIFE ASSURANCE CO /CAN/ 69,864 0 New Buy 2020-03-31
PARAMETRIC PORTFOLIO ASSOCIATES 66,001 171,667 62% 2020-03-31
MACKAY SHIELDS LLC 64,822 55,622 17% 2020-03-31
STRS OHIO 58,100 46,100 26% 2020-03-31
Allianz Asset Management AG 55,833 130,032 57% 2020-03-31
Ensign Peak Advisors, Inc 53,300 46,800 14% 2020-03-31
CITIGROUP INC 47,540 31,390 51% 2020-03-31
FIRST QUADRANT L P/CA 46,460 0 New Buy 2020-03-31
TEXAS PERMANENT SCHOOL FUND 45,371 36,483 24% 2020-03-31
NEW YORK STATE COMMON RETIREMENT FUND 45,100 45,100 No Change 2020-03-31
UBS GLOBAL ASSET MANAGEMENT AMERICAS INC 45,036 39,743 13% 2020-03-31
THRIVENT FINANCIAL FOR LUTHERANS 44,701 42,470 5% 2020-03-31
NEW YORK STATE TEACHERS RETIREMENT SYSTEM 39,519 39,819 1% 2020-03-31
CAPITAL FUND MANAGEMENT S.A. 39,037 43,956 11% 2020-03-31
SYSTEMATIC FINANCIAL MANAGEMENT LP 38,760 35,705 9% 2020-03-31
CREDIT SUISSE/ 37,958 46,968 19% 2020-03-31
AlphaCrest Capital Management LLC 36,218 22,911 58% 2020-03-31
AMERICAN INTERNATIONAL GROUP INC 35,939 37,719 5% 2020-03-31
STATE BOARD OF ADMINISTRATION OF FLORIDA RETIREMENT SYSTEM 34,524 34,524 No Change 2020-03-31
HENDERSON GROUP PLC 32,869 0 New Buy 2020-03-31
ARONSON & JOHNSON & ORTIZ, LP 29,908 17,014 76% 2020-03-31
ROYCE & ASSOCIATES LLC 28,287 27,479 3% 2020-03-31
COMMONWEALTH OF PENNSYLVANIA PUBLIC SCHOOL EMPLS RETRMT SYS 26,835 18,082 48% 2020-03-31
Aperio Group, LLC 24,629 17,224 43% 2020-03-31
MetLife Investment Advisors, LLC 24,336 24,336 No Change 2020-03-31
South Dakota Investment Council 22,200 22,200 No Change 2020-03-31
Cubist Systematic Strategies, LLC 21,481 0 New Buy 2020-03-31
OREGON PUBLIC EMPLOYEES RETIREMENT FUND 21,114 21,114 No Change 2020-03-31
Grantham, Mayo, Van Otterloo & Co. LLC 20,000 0 New Buy 2020-03-31
IndexIQ Advisors LLC 19,346 0 New Buy 2020-03-31
MASON STREET ADVISORS LLC 18,578 18,578 No Change 2020-03-31
CIGNA INVESTMENTS INC /NEW 18,398 0 New Buy 2020-03-31
JAMES INVESTMENT RESEARCH INC 18,180 0 New Buy 2020-03-31
SIMPLEX TRADING, LLC 18,009 3,472 419% 2020-03-31
METROPOLITAN LIFE INSURANCE CO/NY 16,994 16,330 4% 2020-03-31
Teza Capital Management LLC 15,744 25,010 37% 2020-03-31
Louisiana State Employees Retirement System 14,730 18,270 19% 2020-03-31
AIGEN INVESTMENT MANAGEMENT, LP 13,626 52,748 74% 2020-03-31
Xact Kapitalforvaltning AB 12,600 12,600 No Change 2020-03-31
SG Americas Securities, LLC 11,571 0 New Buy 2020-03-31
Dynamic Technology Lab Private Ltd 11,287 17,193 34% 2020-03-31
Arizona State Retirement System 11,270 35,567 68% 2020-03-31
WOLVERINE TRADING, LLC 10,300 11,300 9% 2020-03-31
Clarus Wealth Advisors 10,000 0 New Buy 2020-03-31
VICTORY CAPITAL MANAGEMENT INC 7,342 7,466 2% 2020-03-31
LAZARD ASSET MANAGEMENT LLC 6,663 3,000 122% 2020-03-31
Pacer Advisors, Inc. 5,236 10,696 51% 2020-03-31
North Star Investment Management Corp. 5,000 5,000 No Change 2020-03-31
Financial Architects, Inc 5,000 5,000 No Change 2020-03-31
FIRST MERCANTILE TRUST CO 4,845 4,879 1% 2020-03-31
Summit Investment Advisors, Inc. 4,281 4,281 No Change 2020-03-31
Zurcher Kantonalbank (Zurich Cantonalbank) 3,876 3,876 No Change 2020-03-31
UBS Group AG 2,555 75,179 97% 2020-03-31
MUTUAL OF AMERICA CAPITAL MANAGEMENT CORP 2,316 1,893 22% 2020-03-31
US BANCORP DE 2,049 0 New Buy 2020-03-31
PNC FINANCIAL SERVICES GROUP INC 1,769 3,073 42% 2020-03-31
LS Investment Advisors, LLC 1,750 1,750 No Change 2020-03-31
GLENMEDE TRUST CO NA 1,236 1,236 No Change 2020-03-31
S.A.C. Capital Advisors (Hong Kong) Ltd. 1,064 0 New Buy 2020-03-31
HARBOR INVESTMENT ADVISORY, LLC 923 0 New Buy 2020-03-31
Versant Capital Management, Inc 906 0 New Buy 2020-03-31
MEEDER ASSET MANAGEMENT INC 900 10,566 91% 2020-03-31
Rockefeller Capital Management L.P. 668 668 No Change 2020-03-31
Lindbrook Capital, LLC 550 0 New Buy 2020-03-31
Daiwa Securities Group Inc. 301 301 No Change 2020-03-31
NORTHWESTERN MUTUAL WEALTH MANAGEMENT CO 200 0 New Buy 2020-03-31
FIRST MANHATTAN CO 100 100 No Change 2020-03-31
Wealth Quarterback LLC 68 0 New Buy 2020-03-31
CWM, LLC 41 0 New Buy 2020-03-31
Parkside Financial Bank & Trust 34 73 53% 2020-03-31
EMERALD ADVISERS INC/PA 0 258,497 Sold Out 2020-03-31
EMERALD MUTUAL FUND ADVISERS TRUST 0 251,730 Sold Out 2020-03-31
DUPONT CAPITAL MANAGEMENT 0 24,896 Sold Out 2020-03-31
Campbell & CO Investment Adviser LLC 0 15,137 Sold Out 2020-03-31
Laurion Capital Management LP 0 14,800 Sold Out 2020-03-31
GSA CAPITAL PARTNERS LLP 0 22,135 Sold Out 2020-03-31
CADENCE CAPITAL MANAGEMENT LLC 0 152,428 Sold Out 2020-03-31
ALPS ADVISERS INC 0 25,666 Sold Out 2020-03-31
Rafferty Asset Management, LLC 0 52,858 Sold Out 2020-03-31
WELLINGTON MANAGEMENT CO LLP 0 28,122 Sold Out 2020-03-31
People's United Financial, Inc. 0 29,648 Sold Out 2020-03-31
Chevy Chase Trust Holdings, Inc. 0 100 Sold Out 2020-03-31
Cornerstone Advisors, Inc. 0 44 Sold Out 2020-03-31
GROUP ONE TRADING, L.P. 0 740 Sold Out 2020-03-31
Foundry Partners, LLC 0 45,507 Sold Out 2020-03-31
Tarbox Group, Inc. 0 53 Sold Out 2020-03-31
361 CAPITAL LLC 0 77,630 Sold Out 2020-03-31
Steward Partners Investment Advisory, LLC 0 1 Sold Out 2020-03-31
Private Capital Group, LLC 0 27 Sold Out 2020-03-31
HARVEST GROUP WEALTH MANAGEMENT, LLC 0 86 Sold Out 2020-03-31
*Data and information is provided for informational purposes only, and is not intended for trading purposes.*
*By accessing the Relationalstocks.com web site, a user agrees that RelationalStocks.com shall be not liable for any errors or delays in the content.*